Sherborn, Massachusetts
Current Conditions -  °F | °C
As of 7:01 AM on Thursday 18 Dec 2014 (Local Time) from KOWD Reporting Station
Unknown Precip Unknown Precip  
Wind Chill: 29°   Ceiling: 3200
Heat Index: 35°   Visibility: 10mi
Dew Point: 33°   Wind: 8mph
Humidity: 92%   Direction: 250°WSW
Pressure: 29.76"   Gusts: NA
Location:  42.24°N, 71.37°W
Report Text: KOWD 181201Z 25007KT 10SM UP FEW008 OVC032 02/01 A2976 RMK AO2 P0000 T00170006
Loading
Personal Weather Stations






























Interactive Weather Map New forecast layout! Learn more

10-Day Weather Forecast

Advertisements
Track Severe Weather on mobile